createdAt,value
2023-04-22T00:01:30.608Z,95.20
2023-04-22T00:03:59.152Z,95.10
2023-04-22T00:06:29.143Z,95.10
2023-04-22T00:08:57.436Z,95.20
2023-04-22T00:11:26.331Z,95.20
2023-04-22T00:13:54.887Z,95.30
2023-04-22T00:16:23.272Z,95.30
2023-04-22T00:18:51.547Z,95.40
2023-04-22T00:21:19.758Z,95.50
2023-04-22T00:23:49.359Z,95.50
2023-04-22T00:26:17.840Z,95.50
2023-04-22T00:28:46.428Z,95.40
2023-04-22T00:31:15.058Z,95.50
2023-04-22T00:33:43.878Z,95.40
2023-04-22T00:36:12.538Z,95.40
2023-04-22T00:38:41.053Z,95.50
2023-04-22T00:41:11.767Z,95.50
2023-04-22T00:43:40.254Z,95.60
2023-04-22T00:46:09.071Z,95.60
2023-04-22T00:48:38.660Z,95.70
2023-04-22T00:51:07.813Z,95.60
2023-04-22T00:53:36.347Z,95.70
2023-04-22T00:56:06.043Z,95.60
2023-04-22T00:58:36.203Z,95.60
2023-04-22T01:01:05.360Z,95.70
2023-04-22T01:03:35.933Z,95.70
2023-04-22T01:06:04.691Z,95.70
2023-04-22T01:08:33.594Z,95.80
2023-04-22T01:11:02.191Z,95.80
2023-04-22T01:13:32.755Z,95.80
2023-04-22T01:16:03.970Z,95.90
2023-04-22T01:18:32.676Z,95.90
2023-04-22T01:21:02.422Z,96.00
2023-04-22T01:23:32.471Z,96.10
2023-04-22T01:26:01.108Z,96.10
2023-04-22T01:28:30.708Z,96.20
2023-04-22T01:30:59.405Z,96.30
2023-04-22T01:33:27.956Z,96.40
2023-04-22T01:35:56.693Z,96.40
2023-04-22T01:38:25.315Z,96.40
2023-04-22T01:40:55.589Z,96.50
2023-04-22T01:43:24.757Z,96.50
2023-04-22T01:45:53.505Z,96.60
2023-04-22T01:48:22.102Z,96.70
2023-04-22T01:50:50.626Z,96.70
2023-04-22T01:53:19.172Z,96.80
2023-04-22T01:55:48.797Z,96.80
2023-04-22T01:58:18.641Z,96.90
2023-04-22T02:00:47.812Z,97.00
2023-04-22T02:03:16.556Z,97.10
2023-04-22T02:05:45.487Z,97.20
2023-04-22T02:08:13.969Z,97.30
2023-04-22T02:10:42.508Z,97.20
2023-04-22T02:13:11.308Z,97.30
2023-04-22T02:15:41.995Z,97.40
2023-04-22T02:18:11.424Z,97.50
2023-04-22T02:20:39.896Z,97.60
2023-04-22T02:23:08.580Z,97.60
2023-04-22T02:25:38.363Z,97.60
2023-04-22T02:28:06.807Z,97.80
2023-04-22T02:30:35.476Z,97.80
2023-04-22T02:33:05.658Z,97.80
2023-04-22T02:35:34.680Z,97.90
2023-04-22T02:38:03.100Z,98.20
2023-04-22T02:40:31.598Z,97.90
2023-04-22T02:43:01.404Z,97.90
2023-04-22T02:45:29.912Z,98.00
2023-04-22T02:47:58.387Z,98.10
2023-04-22T02:50:28.312Z,98.20
2023-04-22T02:52:56.863Z,98.20
2023-04-22T02:55:25.901Z,98.20
2023-04-22T02:57:54.523Z,98.40
2023-04-22T03:00:23.188Z,98.90
2023-04-22T03:02:51.772Z,98.90
2023-04-22T03:05:20.584Z,99.00
2023-04-22T03:07:50.553Z,99.10
2023-04-22T03:10:19.131Z,99.20
2023-04-22T03:12:48.439Z,99.20
2023-04-22T03:15:20.515Z,99.30
2023-04-22T03:17:50.490Z,99.40
2023-04-22T03:20:19.284Z,99.60
2023-04-22T03:22:49.348Z,99.60
2023-04-22T03:25:17.992Z,99.70
2023-04-22T03:27:46.573Z,99.70
2023-04-22T03:30:15.218Z,99.80
2023-04-22T03:32:44.190Z,99.90
2023-04-22T03:35:13.372Z,99.90
2023-04-22T03:37:42.271Z,99.90
2023-04-22T03:40:13.779Z,99.90
2023-04-22T03:42:42.926Z,99.90
2023-04-22T03:45:12.428Z,99.90
2023-04-22T03:47:41.277Z,99.90
2023-04-22T03:50:10.765Z,99.90
2023-04-22T03:52:39.522Z,99.90
2023-04-22T03:55:08.987Z,99.90
2023-04-22T03:57:39.101Z,99.90
2023-04-22T04:00:09.411Z,99.90
2023-04-22T04:02:38.207Z,99.90
2023-04-22T04:05:08.112Z,99.90
2023-04-22T04:07:37.113Z,99.90
2023-04-22T04:10:06.548Z,99.90
2023-04-22T04:12:35.257Z,99.90
2023-04-22T04:15:06.164Z,99.90
2023-04-22T04:17:35.080Z,99.90
2023-04-22T04:20:03.930Z,99.90
2023-04-22T04:22:33.753Z,99.90
2023-04-22T04:25:02.761Z,99.90
2023-04-22T04:27:31.633Z,99.90
2023-04-22T04:30:00.423Z,99.90
2023-04-22T04:32:34.485Z,99.90
2023-04-22T04:35:03.524Z,99.90
2023-04-22T04:37:32.559Z,99.90
2023-04-22T04:40:01.929Z,99.90
2023-04-22T04:42:30.666Z,99.90
2023-04-22T04:44:59.830Z,99.90
2023-04-22T04:47:30.355Z,99.90
2023-04-22T04:49:59.072Z,99.90
2023-04-22T04:52:27.793Z,99.90
2023-04-22T04:54:56.617Z,99.90
2023-04-22T04:57:25.369Z,99.90
2023-04-22T04:59:54.136Z,99.90
2023-04-22T05:02:23.147Z,99.90
2023-04-22T05:04:53.668Z,99.90
2023-04-22T05:07:22.569Z,99.90
2023-04-22T05:09:51.352Z,99.90
2023-04-22T05:12:20.066Z,99.90
2023-04-22T05:14:48.823Z,99.90
2023-04-22T05:17:17.704Z,99.90
2023-04-22T05:19:46.448Z,99.90
2023-04-22T05:22:18.349Z,99.90
2023-04-22T05:24:46.986Z,99.90
2023-04-22T05:27:15.818Z,99.90
2023-04-22T05:29:44.622Z,99.80
2023-04-22T05:32:13.483Z,99.70
2023-04-22T05:34:42.347Z,99.70
2023-04-22T05:37:11.332Z,98.20
2023-04-22T05:39:42.402Z,96.60
2023-04-22T05:42:11.419Z,95.10
2023-04-22T05:44:40.297Z,94.40
2023-04-22T05:47:09.150Z,93.80
2023-04-22T05:49:38.475Z,92.80
2023-04-22T05:52:07.649Z,92.30
2023-04-22T05:54:36.339Z,90.00
2023-04-22T05:57:06.742Z,89.20
2023-04-22T05:59:35.630Z,90.30
2023-04-22T06:02:04.593Z,89.30
2023-04-22T06:04:37.154Z,88.20
2023-04-22T06:07:06.703Z,85.70
2023-04-22T06:09:35.822Z,84.20
2023-04-22T06:12:06.514Z,83.60
2023-04-22T06:14:35.193Z,82.70
2023-04-22T06:17:04.180Z,84.30
2023-04-22T06:19:33.097Z,83.30
2023-04-22T06:22:01.872Z,81.60
2023-04-22T06:24:30.764Z,82.50
2023-04-22T06:26:59.642Z,81.30
2023-04-22T06:29:29.795Z,78.50
2023-04-22T06:31:58.852Z,80.50
2023-04-22T06:34:27.645Z,80.20
2023-04-22T06:36:56.432Z,80.20
2023-04-22T06:39:25.263Z,78.50
2023-04-22T06:41:54.044Z,77.40
2023-04-22T06:44:23.322Z,76.10
2023-04-22T06:46:55.850Z,75.50
2023-04-22T06:49:26.188Z,74.20
2023-04-22T06:51:55.070Z,73.20
2023-04-22T06:54:23.816Z,73.20
2023-04-22T06:56:52.708Z,72.70
2023-04-22T06:59:21.517Z,73.30
2023-04-22T07:01:50.401Z,73.70
2023-04-22T07:04:20.833Z,74.10
2023-04-22T07:06:49.667Z,73.70
2023-04-22T07:09:18.427Z,74.20
2023-04-22T07:11:47.305Z,74.70
2023-04-22T07:14:16.065Z,73.70
2023-04-22T07:16:44.964Z,74.70
2023-04-22T07:19:14.022Z,74.30
2023-04-22T07:21:44.249Z,71.90
2023-04-22T07:24:13.463Z,72.40
2023-04-22T07:26:42.866Z,71.00
2023-04-22T07:29:13.255Z,72.10
2023-04-22T07:31:42.193Z,72.30
2023-04-22T07:34:11.504Z,72.10
2023-04-22T07:36:40.351Z,74.40
2023-04-22T07:39:11.178Z,73.10
2023-04-22T07:41:39.868Z,72.20
2023-04-22T07:44:08.585Z,71.20
2023-04-22T07:46:37.464Z,73.30
2023-04-22T07:49:06.343Z,73.20
2023-04-22T07:51:36.029Z,71.60
2023-04-22T07:54:05.177Z,72.50
2023-04-22T07:56:35.543Z,70.80
2023-04-22T07:59:04.984Z,70.20
2023-04-22T08:01:33.796Z,71.40
2023-04-22T08:04:03.352Z,71.00
2023-04-22T08:06:32.798Z,70.50
2023-04-22T08:09:01.660Z,70.60
2023-04-22T08:11:30.749Z,72.20
2023-04-22T08:14:01.231Z,70.90
2023-04-22T08:16:30.057Z,72.30
2023-04-22T08:18:58.941Z,72.00
2023-04-22T08:21:28.782Z,71.00
2023-04-22T08:23:57.590Z,71.00
2023-04-22T08:26:26.424Z,74.20
2023-04-22T08:28:55.320Z,73.80
2023-04-22T08:31:25.503Z,75.30
2023-04-22T08:33:54.529Z,76.30
2023-04-22T08:36:26.175Z,77.60
2023-04-22T08:38:55.110Z,78.50
2023-04-22T08:41:24.772Z,80.20
2023-04-22T08:43:54.481Z,79.70
2023-04-22T08:46:25.754Z,81.10
2023-04-22T08:48:55.783Z,81.40
2023-04-22T08:51:24.753Z,82.20
2023-04-22T08:53:53.507Z,82.40
2023-04-22T08:56:22.880Z,82.40
2023-04-22T08:58:51.990Z,83.60
2023-04-22T09:01:21.772Z,83.20
2023-04-22T09:03:52.401Z,83.20
2023-04-22T09:06:22.557Z,82.80
2023-04-22T09:08:51.599Z,83.00
2023-04-22T09:11:20.633Z,84.70
2023-04-22T09:13:49.230Z,83.50
2023-04-22T09:16:18.273Z,84.10
2023-04-22T09:18:47.200Z,84.70
2023-04-22T09:21:17.420Z,83.90
2023-04-22T09:23:51.724Z,84.00
2023-04-22T09:26:22.124Z,84.60
2023-04-22T09:28:55.307Z,84.20
2023-04-22T09:31:24.737Z,84.00
2023-04-22T09:33:57.307Z,85.00
2023-04-22T09:36:28.472Z,84.40
2023-04-22T09:38:58.834Z,85.30
2023-04-22T09:41:31.749Z,84.20
2023-04-22T09:44:02.652Z,83.10
2023-04-22T09:46:33.957Z,83.80
2023-04-22T09:49:03.769Z,84.00
2023-04-22T09:51:34.787Z,84.00
2023-04-22T09:54:08.157Z,84.20
2023-04-22T09:56:45.133Z,84.60
2023-04-22T09:59:14.189Z,83.30
2023-04-22T10:01:44.344Z,84.70
2023-04-22T10:04:15.822Z,84.30
2023-04-22T10:06:46.628Z,84.00
2023-04-22T10:09:17.102Z,83.40
2023-04-22T10:11:46.175Z,83.90
2023-04-22T10:14:15.493Z,82.40
2023-04-22T10:16:48.615Z,82.50
2023-04-22T10:19:22.041Z,83.00
2023-04-22T10:21:57.979Z,82.20
2023-04-22T10:24:28.839Z,82.50
2023-04-22T10:27:03.146Z,83.10
2023-04-22T10:29:39.318Z,82.80
2023-04-22T10:32:24.086Z,83.40
2023-04-22T10:35:12.918Z,83.50
2023-04-22T10:37:49.205Z,82.90
2023-04-22T10:40:20.357Z,82.80
2023-04-22T10:42:51.854Z,79.20
2023-04-22T10:45:26.044Z,79.00
2023-04-22T10:47:55.099Z,79.60
2023-04-22T10:50:26.825Z,78.40
2023-04-22T10:53:00.475Z,80.00
2023-04-22T10:55:52.803Z,79.60
2023-04-22T10:58:23.526Z,79.50
2023-04-22T11:01:00.196Z,79.20
2023-04-22T11:03:31.240Z,80.10
2023-04-22T11:06:17.361Z,79.90
2023-04-22T11:08:49.237Z,80.30
2023-04-22T11:11:20.286Z,81.10
2023-04-22T11:13:52.218Z,80.20
2023-04-22T11:16:23.871Z,80.90
2023-04-22T11:18:53.195Z,79.90
2023-04-22T11:21:22.963Z,78.80
2023-04-22T11:23:54.543Z,78.40
2023-04-22T11:26:36.508Z,79.50
2023-04-22T11:29:05.955Z,78.60
2023-04-22T11:31:36.641Z,76.20
2023-04-22T11:34:05.583Z,76.40
2023-04-22T11:36:34.475Z,75.90
2023-04-22T11:39:09.597Z,76.60
2023-04-22T11:41:38.033Z,77.00
2023-04-22T11:44:06.424Z,76.60
2023-04-22T11:46:38.802Z,76.30
2023-04-22T11:49:14.593Z,76.50
2023-04-22T11:51:56.768Z,76.00
2023-04-22T11:54:34.500Z,75.60
2023-04-22T11:57:04.717Z,75.50
2023-04-22T11:59:33.162Z,76.30
2023-04-22T12:02:01.625Z,74.60
2023-04-22T12:04:30.155Z,75.50
2023-04-22T12:06:58.823Z,75.30
2023-04-22T12:09:28.569Z,74.00
2023-04-22T12:11:58.440Z,74.70
2023-04-22T12:14:33.143Z,74.40
2023-04-22T12:17:04.969Z,74.50
2023-04-22T12:19:33.344Z,74.10
2023-04-22T12:22:01.686Z,74.60
2023-04-22T12:24:31.235Z,74.00
2023-04-22T12:27:01.433Z,72.80
2023-04-22T12:29:32.782Z,73.80
2023-04-22T12:32:01.332Z,73.60
2023-04-22T12:34:29.710Z,73.10
2023-04-22T12:36:58.150Z,72.30
2023-04-22T12:39:26.487Z,72.20
2023-04-22T12:41:54.969Z,72.80
2023-04-22T12:44:25.288Z,74.00
2023-04-22T12:46:53.861Z,72.30
2023-04-22T12:49:22.586Z,73.30
2023-04-22T12:51:51.431Z,73.40
2023-04-22T12:54:20.632Z,73.00
2023-04-22T12:56:49.902Z,72.80
2023-04-22T12:59:18.399Z,73.00
2023-04-22T13:01:48.200Z,73.70
2023-04-22T13:04:16.754Z,72.80
2023-04-22T13:06:45.071Z,74.10
2023-04-22T13:09:13.796Z,73.30
2023-04-22T13:11:42.239Z,72.60
2023-04-22T13:14:10.824Z,73.40
2023-04-22T13:16:39.222Z,73.80
2023-04-22T13:19:09.052Z,74.30
2023-04-22T13:21:37.551Z,74.20
2023-04-22T13:24:06.060Z,75.30
2023-04-22T13:26:34.599Z,75.70
2023-04-22T13:29:03.018Z,75.30
2023-04-22T13:31:31.419Z,74.40
2023-04-22T13:33:59.805Z,74.70
2023-04-22T13:36:29.669Z,75.60
2023-04-22T13:38:59.147Z,76.90
2023-04-22T13:41:27.573Z,76.30
2023-04-22T13:43:56.535Z,76.00
2023-04-22T13:46:25.473Z,75.20
2023-04-22T13:48:54.607Z,75.30
2023-04-22T13:51:23.011Z,75.20
2023-04-22T13:53:52.913Z,74.80
2023-04-22T13:56:21.332Z,74.80
2023-04-22T13:58:49.798Z,76.00
2023-04-22T14:01:18.175Z,75.00
2023-04-22T14:03:47.159Z,73.90
2023-04-22T14:06:16.002Z,74.00
2023-04-22T14:08:44.689Z,74.40
2023-04-22T14:11:14.857Z,74.60
2023-04-22T14:13:46.621Z,73.70
2023-04-22T14:16:15.533Z,74.50
2023-04-22T14:18:45.801Z,75.80
2023-04-22T14:21:14.496Z,73.90
2023-04-22T14:23:43.328Z,74.00
2023-04-22T14:26:14.362Z,73.90
2023-04-22T14:28:43.520Z,75.20
2023-04-22T14:31:11.979Z,75.50
2023-04-22T14:33:40.363Z,75.60
2023-04-22T14:36:08.946Z,75.50
2023-04-22T14:38:37.339Z,73.60
2023-04-22T14:41:06.400Z,74.90
2023-04-22T14:43:36.319Z,74.20
2023-04-22T14:46:04.952Z,74.50
2023-04-22T14:48:35.449Z,74.50
2023-04-22T14:51:04.005Z,75.00
2023-04-22T14:53:33.493Z,75.90
2023-04-22T14:56:01.965Z,75.00
2023-04-22T14:58:31.820Z,75.50
2023-04-22T15:01:02.330Z,75.10
2023-04-22T15:03:31.463Z,74.60
2023-04-22T15:06:00.145Z,73.70
2023-04-22T15:08:28.743Z,73.50
2023-04-22T15:10:59.747Z,74.60
2023-04-22T15:13:28.500Z,73.10
2023-04-22T15:15:57.287Z,72.80
2023-04-22T15:18:28.238Z,73.00
2023-04-22T15:20:57.086Z,73.20
2023-04-22T15:23:25.774Z,73.70
2023-04-22T15:25:54.533Z,73.60
2023-04-22T15:28:24.614Z,73.90
2023-04-22T15:30:53.321Z,74.90
2023-04-22T15:33:24.870Z,73.70
2023-04-22T15:35:54.861Z,74.50
2023-04-22T15:38:24.942Z,74.50
2023-04-22T15:40:53.806Z,75.10
2023-04-22T15:43:22.488Z,74.10
2023-04-22T15:45:51.546Z,73.30
2023-04-22T15:48:20.372Z,74.00
2023-04-22T15:50:48.746Z,73.40
2023-04-22T15:53:18.627Z,72.70
2023-04-22T15:55:48.503Z,72.90
2023-04-22T15:58:16.970Z,72.60
2023-04-22T16:00:45.415Z,73.60
2023-04-22T16:03:13.910Z,74.00
2023-04-22T16:05:42.291Z,72.50
2023-04-22T16:08:10.920Z,73.30
2023-04-22T16:10:40.663Z,73.30
2023-04-22T16:13:08.998Z,73.40
2023-04-22T16:15:37.433Z,73.70
2023-04-22T16:18:06.199Z,74.00
2023-04-22T16:20:34.662Z,74.50
2023-04-22T16:23:03.553Z,73.90
2023-04-22T16:25:31.876Z,74.20
2023-04-22T16:28:01.661Z,74.80
2023-04-22T16:30:30.120Z,75.00
2023-04-22T16:32:58.566Z,75.20
2023-04-22T16:35:27.007Z,74.00
2023-04-22T16:37:55.593Z,74.00
2023-04-22T16:40:24.026Z,73.90
2023-04-22T16:42:53.872Z,74.20
2023-04-22T16:45:23.754Z,73.30
2023-04-22T16:47:52.183Z,73.50
2023-04-22T16:50:20.682Z,73.80
2023-04-22T16:52:49.151Z,74.80
2023-04-22T16:55:17.936Z,74.10
2023-04-22T16:57:49.667Z,74.20
2023-04-22T17:00:19.419Z,74.80
2023-04-22T17:02:49.795Z,74.90
2023-04-22T17:05:18.570Z,75.40
2023-04-22T17:07:47.124Z,75.10
2023-04-22T17:10:15.977Z,75.00
2023-04-22T17:12:47.006Z,75.20
2023-04-22T17:15:16.193Z,75.90
2023-04-22T17:17:44.785Z,75.70
2023-04-22T17:20:14.898Z,76.00
2023-04-22T17:22:43.408Z,76.70
2023-04-22T17:25:12.480Z,76.20
2023-04-22T17:27:41.018Z,76.40
2023-04-22T17:30:10.315Z,76.90
2023-04-22T17:32:38.908Z,77.10
2023-04-22T17:35:08.253Z,77.00
2023-04-22T17:37:38.134Z,77.10
2023-04-22T17:40:08.656Z,77.80
2023-04-22T17:42:45.983Z,77.40
2023-04-22T17:45:15.037Z,77.70
2023-04-22T17:47:43.424Z,78.60
2023-04-22T17:50:12.409Z,78.20
2023-04-22T17:52:42.303Z,78.50
2023-04-22T17:55:11.623Z,78.80
2023-04-22T17:57:40.957Z,79.10
2023-04-22T18:00:11.299Z,79.20
2023-04-22T18:02:40.003Z,79.70
2023-04-22T18:05:09.223Z,79.90
2023-04-22T18:07:37.788Z,80.70
2023-04-22T18:10:10.327Z,80.30
2023-04-22T18:12:38.956Z,80.50
2023-04-22T18:15:08.644Z,80.70
2023-04-22T18:17:37.262Z,81.20
2023-04-22T18:20:17.677Z,81.60
2023-04-22T18:22:47.899Z,82.00
2023-04-22T18:25:17.953Z,82.10
2023-04-22T18:27:46.431Z,82.10
2023-04-22T18:30:15.542Z,82.20
2023-04-22T18:32:44.351Z,82.10
2023-04-22T18:35:13.014Z,82.20
2023-04-22T18:37:41.496Z,82.30
2023-04-22T18:40:10.996Z,82.80
2023-04-22T18:42:44.717Z,82.70
2023-04-22T18:45:13.798Z,83.00
2023-04-22T18:47:44.054Z,83.00
2023-04-22T18:50:12.790Z,83.20
2023-04-22T18:52:41.284Z,83.60
2023-04-22T18:55:10.751Z,84.20
2023-04-22T18:57:41.658Z,84.70
2023-04-22T19:00:12.808Z,85.00
2023-04-22T19:02:42.580Z,84.90
2023-04-22T19:05:13.669Z,85.20
2023-04-22T19:07:44.464Z,86.10
2023-04-22T19:10:13.762Z,85.60
2023-04-22T19:12:44.143Z,86.00
2023-04-22T19:15:13.348Z,85.90
2023-04-22T19:17:46.046Z,85.80
2023-04-22T19:20:14.842Z,86.10
2023-04-22T19:22:43.539Z,86.00
2023-04-22T19:25:12.582Z,86.30
2023-04-22T19:27:42.694Z,86.40
2023-04-22T19:30:12.927Z,86.50
2023-04-22T19:32:41.728Z,86.40
2023-04-22T19:35:15.942Z,86.50
2023-04-22T19:37:45.904Z,86.60
2023-04-22T19:40:17.313Z,86.70
2023-04-22T19:42:48.959Z,86.80
2023-04-22T19:45:17.556Z,86.40
2023-04-22T19:47:46.870Z,86.20
2023-04-22T19:50:17.163Z,86.40
2023-04-22T19:52:48.186Z,86.20
2023-04-22T19:55:18.101Z,86.40
2023-04-22T19:57:48.650Z,86.00
2023-04-22T20:00:25.840Z,86.10
2023-04-22T20:02:55.405Z,85.90
2023-04-22T20:05:25.136Z,85.80
2023-04-22T20:07:54.664Z,85.80
2023-04-22T20:10:23.608Z,86.00
2023-04-22T20:12:54.070Z,85.80
2023-04-22T20:15:23.260Z,85.80
2023-04-22T20:17:52.572Z,86.10
2023-04-22T20:20:21.771Z,86.10
2023-04-22T20:22:52.911Z,86.20
2023-04-22T20:25:23.242Z,86.30
2023-04-22T20:27:53.506Z,86.70
2023-04-22T20:30:22.334Z,86.80
2023-04-22T20:32:51.743Z,86.80
2023-04-22T20:35:21.218Z,87.10
2023-04-22T20:37:51.026Z,87.10
2023-04-22T20:40:24.784Z,87.10
2023-04-22T20:43:00.738Z,87.30
2023-04-22T20:45:29.770Z,87.60
2023-04-22T20:47:58.595Z,87.90
2023-04-22T20:50:33.348Z,87.50
2023-04-22T20:53:02.470Z,87.50
2023-04-22T20:55:36.829Z,87.50
2023-04-22T20:58:06.990Z,87.70
2023-04-22T21:00:35.522Z,87.40
2023-04-22T21:03:09.005Z,88.00
2023-04-22T21:05:41.243Z,87.90
2023-04-22T21:08:23.156Z,88.30
2023-04-22T21:10:53.704Z,88.60
2023-04-22T21:13:24.439Z,88.70
2023-04-22T21:15:59.136Z,88.60
2023-04-22T21:18:29.324Z,88.50
2023-04-22T21:20:58.472Z,88.90
2023-04-22T21:23:27.260Z,88.90
2023-04-22T21:25:56.667Z,88.90
2023-04-22T21:28:27.129Z,88.80
2023-04-22T21:30:56.675Z,88.70
2023-04-22T21:33:25.346Z,88.70
2023-04-22T21:35:53.915Z,89.20
2023-04-22T21:38:22.691Z,89.10
2023-04-22T21:40:51.059Z,89.00
2023-04-22T21:43:19.308Z,89.40
2023-04-22T21:45:49.164Z,89.20
2023-04-22T21:48:17.533Z,89.30
2023-04-22T21:50:45.808Z,89.40
2023-04-22T21:53:14.225Z,88.90
2023-04-22T21:55:42.572Z,88.70
2023-04-22T21:58:10.844Z,88.70
2023-04-22T22:00:39.574Z,88.70
2023-04-22T22:03:09.588Z,88.60
2023-04-22T22:05:38.245Z,88.80
2023-04-22T22:08:07.140Z,88.70
2023-04-22T22:10:35.690Z,89.00
2023-04-22T22:13:04.208Z,89.00
2023-04-22T22:15:32.628Z,89.20
2023-04-22T22:18:01.154Z,89.30
2023-04-22T22:20:31.148Z,89.00
2023-04-22T22:22:59.501Z,88.70
2023-04-22T22:25:27.945Z,89.20
2023-04-22T22:27:56.420Z,88.80
2023-04-22T22:30:24.907Z,88.80
2023-04-22T22:32:53.450Z,88.80
2023-04-22T22:35:22.142Z,89.10
2023-04-22T22:37:51.816Z,89.70
2023-04-22T22:40:20.421Z,89.50
2023-04-22T22:42:48.713Z,89.40
2023-04-22T22:45:17.193Z,89.80
2023-04-22T22:47:46.147Z,90.00
2023-04-22T22:50:14.750Z,90.00
2023-04-22T22:52:43.140Z,90.10
2023-04-22T22:55:13.873Z,90.20
2023-04-22T22:57:42.332Z,90.30
2023-04-22T23:00:12.866Z,90.40
2023-04-22T23:02:41.606Z,90.40
2023-04-22T23:05:11.194Z,90.50
2023-04-22T23:07:39.702Z,90.50
2023-04-22T23:10:09.603Z,90.60
2023-04-22T23:12:39.476Z,90.70
2023-04-22T23:15:09.051Z,90.90
2023-04-22T23:17:37.948Z,90.90
2023-04-22T23:20:09.697Z,91.00
2023-04-22T23:22:39.410Z,90.90
2023-04-22T23:25:09.219Z,91.00
2023-04-22T23:27:39.512Z,91.30
2023-04-22T23:30:09.141Z,91.30
2023-04-22T23:32:41.187Z,91.30
2023-04-22T23:35:12.312Z,91.50
2023-04-22T23:37:44.218Z,91.50
2023-04-22T23:40:13.291Z,91.60
2023-04-22T23:42:42.916Z,91.70
2023-04-22T23:45:12.320Z,91.70
2023-04-22T23:47:40.898Z,91.80
2023-04-22T23:50:10.241Z,91.80
2023-04-22T23:52:41.442Z,92.10
2023-04-22T23:55:11.606Z,92.20
2023-04-22T23:57:40.764Z,92.30
